createdAt,value
2023-05-04T02:47:32.698Z,0.00
2023-05-04T04:29:47.017Z,140.62
2023-05-04T04:30:43.911Z,140.62
2023-05-04T04:31:43.966Z,146.25
2023-05-04T04:32:43.959Z,146.25
2023-05-04T04:33:43.852Z,151.88
2023-05-04T04:34:43.884Z,157.50
2023-05-04T04:35:43.858Z,163.12
2023-05-04T04:36:43.841Z,168.75
2023-05-04T04:37:43.798Z,174.38
2023-05-04T04:38:43.860Z,180.00
2023-05-04T04:39:43.790Z,185.62
2023-05-04T04:40:43.906Z,191.25
2023-05-04T04:41:44.599Z,196.88
2023-05-04T04:42:43.741Z,196.88
2023-05-04T04:43:43.775Z,202.50
2023-05-04T04:44:44.570Z,208.12
2023-05-04T04:45:43.808Z,208.12
2023-05-04T04:46:43.683Z,213.75
2023-05-04T04:47:43.750Z,219.38
2023-05-04T04:48:43.617Z,225.00
2023-05-04T04:49:44.362Z,230.62
2023-05-04T04:50:43.578Z,236.25
2023-05-04T04:51:44.440Z,241.88
2023-05-04T04:52:43.589Z,247.50
2023-05-04T04:53:44.498Z,247.50
2023-05-04T04:54:43.636Z,253.12
2023-05-04T04:55:43.508Z,258.75
2023-05-04T04:56:43.600Z,264.38
2023-05-04T04:57:43.510Z,270.00
2023-05-04T04:58:44.244Z,270.00
2023-05-04T04:59:44.411Z,281.25
2023-05-04T05:00:43.697Z,281.25
2023-05-04T05:01:44.260Z,286.88
2023-05-04T05:02:43.530Z,292.50
2023-05-04T05:03:43.550Z,292.50
2023-05-04T05:04:43.628Z,298.12
2023-05-04T05:05:43.398Z,303.75
2023-05-04T05:06:43.538Z,320.62
2023-05-04T05:07:44.194Z,326.25
2023-05-04T05:08:43.543Z,309.38
2023-05-04T05:09:43.876Z,309.38
2023-05-04T05:10:44.149Z,309.38
2023-05-04T05:11:43.403Z,309.38
2023-05-04T05:12:43.563Z,309.38
2023-05-04T05:13:43.279Z,303.75
2023-05-04T05:14:43.300Z,303.75
2023-05-04T05:15:43.233Z,303.75
2023-05-04T05:16:43.279Z,298.12
2023-05-04T05:17:43.312Z,292.50
2023-05-04T05:18:43.702Z,286.88
2023-05-04T05:19:43.315Z,303.75
2023-05-04T05:20:43.185Z,303.75
2023-05-04T05:21:43.186Z,303.75
2023-05-04T05:22:43.300Z,303.75
2023-05-04T05:23:43.175Z,303.75
2023-05-04T05:24:43.186Z,303.75
2023-05-04T05:25:43.212Z,303.75
2023-05-04T05:26:43.878Z,303.75
2023-05-04T05:27:44.072Z,303.75
2023-05-04T05:28:43.152Z,303.75
2023-05-04T05:29:43.914Z,309.38
2023-05-04T05:30:44.110Z,315.00
2023-05-04T05:31:43.902Z,320.62
2023-05-04T05:32:43.090Z,326.25
2023-05-04T05:33:44.161Z,360.00
2023-05-04T05:34:43.082Z,405.00
2023-05-04T05:35:43.810Z,455.62
2023-05-04T05:36:43.990Z,472.50
2023-05-04T05:37:43.888Z,489.38
2023-05-04T05:38:43.471Z,500.62
2023-05-04T05:39:42.922Z,472.50
2023-05-04T05:40:42.969Z,450.00
2023-05-04T05:41:42.858Z,405.00
2023-05-04T05:42:42.939Z,405.00
2023-05-04T05:43:42.961Z,416.25
2023-05-04T05:44:42.841Z,455.62
2023-05-04T05:45:43.392Z,472.50
2023-05-04T05:46:42.948Z,489.38
2023-05-04T05:47:42.900Z,478.12
2023-05-04T05:48:42.861Z,455.62
2023-05-04T05:49:44.772Z,433.12
2023-05-04T05:50:42.766Z,444.38
2023-05-04T05:51:42.795Z,455.62
2023-05-04T05:52:43.103Z,466.88
2023-05-04T05:53:42.775Z,472.50
2023-05-04T05:54:42.729Z,472.50
2023-05-04T05:55:42.757Z,472.50
2023-05-04T05:56:42.788Z,461.25
2023-05-04T05:57:42.706Z,450.00
2023-05-04T05:58:42.697Z,444.38
2023-05-04T06:00:05.485Z,438.75
2023-05-04T06:01:04.745Z,438.75
2023-05-04T06:01:42.924Z,438.75
2023-05-04T06:02:43.056Z,444.38
2023-05-04T06:03:42.730Z,444.38
2023-05-04T06:04:42.947Z,450.00
2023-05-04T06:05:49.313Z,455.62
2023-05-04T06:06:45.771Z,461.25
2023-05-04T06:09:19.116Z,472.50
2023-05-04T06:10:19.050Z,478.12
2023-05-04T06:11:19.166Z,478.12
2023-05-04T06:12:18.723Z,483.75
2023-05-04T06:14:52.056Z,495.00
2023-05-04T06:15:47.197Z,506.25
2023-05-04T06:16:47.290Z,506.25
2023-05-04T06:17:47.105Z,506.25
2023-05-04T06:18:47.149Z,495.00
2023-05-04T06:19:58.901Z,500.62
2023-05-04T06:20:47.637Z,506.25
2023-05-04T06:21:47.762Z,517.50
2023-05-04T06:22:46.954Z,534.38
2023-05-04T06:23:48.153Z,545.62
2023-05-04T06:24:46.940Z,551.25
2023-05-04T06:25:47.671Z,556.88
2023-05-04T06:26:47.072Z,568.12
2023-05-04T06:27:46.858Z,579.38
2023-05-04T06:28:46.879Z,579.38
2023-05-04T06:29:46.911Z,579.38
2023-05-04T06:30:46.893Z,579.38
2023-05-04T06:31:48.512Z,607.50
2023-05-04T06:32:47.772Z,618.75
2023-05-04T06:33:46.864Z,585.00
2023-05-04T06:34:46.893Z,596.25
2023-05-04T06:35:46.986Z,590.62
2023-05-04T06:36:46.700Z,635.62
2023-05-04T06:37:47.543Z,613.12
2023-05-04T06:38:47.448Z,641.25
2023-05-04T06:39:47.602Z,652.50
2023-05-04T06:40:47.504Z,680.62
2023-05-04T06:41:46.694Z,686.25
2023-05-04T06:42:47.573Z,669.38
2023-05-04T06:43:46.605Z,866.25
2023-05-04T06:44:47.417Z,973.12
2023-05-04T06:45:47.632Z,978.75
2023-05-04T06:46:47.533Z,1035.00
2023-05-04T06:47:46.661Z,894.38
2023-05-04T06:48:47.572Z,905.62
2023-05-04T06:49:47.405Z,1113.75
2023-05-04T06:50:47.351Z,1119.38
2023-05-04T06:51:46.578Z,1215.00
2023-05-04T06:52:47.385Z,1231.88
2023-05-04T06:53:47.283Z,1299.38
2023-05-04T06:54:46.446Z,1282.50
2023-05-04T06:55:46.490Z,1305.00
2023-05-04T06:56:46.513Z,1288.12
2023-05-04T06:57:46.446Z,1231.88
2023-05-04T06:58:46.516Z,1175.62
2023-05-04T06:59:47.218Z,1074.38
2023-05-04T07:00:46.431Z,1046.25
2023-05-04T07:01:47.310Z,1125.00
2023-05-04T07:02:46.494Z,1091.25
2023-05-04T07:03:46.391Z,1175.62
2023-05-04T07:04:47.258Z,1215.00
2023-05-04T07:05:47.164Z,1276.88
2023-05-04T07:06:46.568Z,1293.75
2023-05-04T07:07:47.640Z,1254.38
2023-05-04T07:08:47.123Z,1361.25
2023-05-04T07:09:46.284Z,1344.38
2023-05-04T07:10:46.260Z,1282.50
2023-05-04T07:11:47.128Z,1248.75
2023-05-04T07:12:46.835Z,1231.88
2023-05-04T07:13:46.392Z,1209.38
2023-05-04T07:14:47.162Z,1276.88
2023-05-04T07:15:46.265Z,1344.38
2023-05-04T07:16:47.229Z,1209.38
2023-05-04T07:17:46.785Z,1378.12
2023-05-04T07:18:46.118Z,1355.62
2023-05-04T07:19:46.151Z,1378.12
2023-05-04T07:20:46.270Z,1400.62
2023-05-04T07:21:46.145Z,1462.50
2023-05-04T07:22:46.412Z,1501.88
2023-05-04T07:23:46.224Z,1451.25
2023-05-04T07:24:46.037Z,1400.62
2023-05-04T07:25:46.521Z,1220.62
2023-05-04T07:26:46.945Z,1293.75
2023-05-04T07:27:46.680Z,1496.25
2023-05-04T07:28:46.789Z,1575.00
2023-05-04T07:29:46.928Z,1603.12
2023-05-04T07:30:45.948Z,1591.88
2023-05-04T07:31:45.955Z,1563.75
2023-05-04T07:32:46.019Z,1558.12
2023-05-04T07:33:45.954Z,1546.88
2023-05-04T07:34:46.580Z,1518.75
2023-05-04T07:35:45.894Z,1485.00
2023-05-04T07:36:45.839Z,1530.00
2023-05-04T07:37:45.911Z,1580.62
2023-05-04T07:38:45.840Z,1518.75
2023-05-04T07:39:45.846Z,1558.12
2023-05-04T07:40:45.819Z,1563.75
2023-05-04T07:41:48.750Z,1563.75
2023-05-04T07:42:45.854Z,1541.25
2023-05-04T07:43:45.761Z,1490.62
2023-05-04T07:44:45.888Z,1366.88
2023-05-04T07:45:45.889Z,1383.75
2023-05-04T07:46:45.823Z,1372.50
2023-05-04T07:47:45.729Z,1440.00
2023-05-04T07:48:45.786Z,1440.00
2023-05-04T07:49:45.652Z,1428.75
2023-05-04T07:50:46.415Z,1361.25
2023-05-04T07:51:45.665Z,1383.75
2023-05-04T07:52:46.029Z,1473.75
2023-05-04T07:53:46.014Z,1569.38
2023-05-04T07:54:45.598Z,1631.25
2023-05-04T07:55:45.652Z,1636.88
2023-05-04T07:56:45.688Z,1698.75
2023-05-04T07:57:45.578Z,1743.75
2023-05-04T07:58:45.552Z,1777.50
2023-05-04T07:59:45.852Z,1845.00
2023-05-04T08:00:45.519Z,1861.88
2023-05-04T08:01:45.544Z,1794.38
2023-05-04T08:02:49.262Z,1878.75
2023-05-04T08:03:45.502Z,1788.75
2023-05-04T08:04:46.412Z,1715.62
2023-05-04T08:05:45.618Z,1681.88
2023-05-04T08:06:45.485Z,1524.38
2023-05-04T08:07:45.681Z,1783.12
2023-05-04T08:08:45.431Z,1800.00
2023-05-04T08:09:45.405Z,1895.62
2023-05-04T08:10:45.412Z,1839.38
2023-05-04T08:11:45.622Z,1749.38
2023-05-04T08:12:45.707Z,1710.00
2023-05-04T08:13:45.311Z,1687.50
2023-05-04T08:14:45.449Z,1726.88
2023-05-04T08:15:45.301Z,1715.62
2023-05-04T08:16:45.384Z,1766.25
2023-05-04T08:17:45.383Z,1816.88
2023-05-04T08:18:45.895Z,1811.25
2023-05-04T08:19:45.385Z,1901.25
2023-05-04T08:20:45.856Z,1968.75
2023-05-04T08:21:45.975Z,2008.12
2023-05-04T08:22:45.224Z,1861.88
2023-05-04T08:23:45.209Z,1974.38
2023-05-04T08:24:45.188Z,2199.38
2023-05-04T08:25:45.148Z,2070.00
2023-05-04T08:26:47.389Z,1991.25
2023-05-04T08:27:46.177Z,1918.12
2023-05-04T08:28:45.224Z,2013.75
2023-05-04T08:29:45.182Z,2064.38
2023-05-04T08:30:45.149Z,2036.25
2023-05-04T08:31:45.101Z,2013.75
2023-05-04T08:32:45.392Z,2025.00
2023-05-04T08:33:45.051Z,2002.50
2023-05-04T08:34:45.162Z,2053.12
2023-05-04T08:35:45.254Z,2064.38
2023-05-04T08:36:44.988Z,2165.62
2023-05-04T08:37:45.007Z,2227.50
2023-05-04T08:38:45.208Z,2233.12
2023-05-04T08:39:44.993Z,2199.38
2023-05-04T08:40:45.028Z,2092.50
2023-05-04T08:41:44.951Z,2126.25
2023-05-04T08:42:44.955Z,2160.00
2023-05-04T08:43:44.949Z,2154.38
2023-05-04T08:44:44.912Z,2075.62
2023-05-04T08:45:44.969Z,2019.38
2023-05-04T08:46:44.972Z,1968.75
2023-05-04T08:47:44.997Z,1991.25
2023-05-04T08:48:44.901Z,1963.12
2023-05-04T08:49:45.013Z,2036.25
2023-05-04T08:50:45.815Z,2025.00
2023-05-04T08:51:44.825Z,2036.25
2023-05-04T08:52:44.830Z,2036.25
2023-05-04T08:53:45.772Z,2008.12
2023-05-04T08:54:44.753Z,1968.75
2023-05-04T08:55:45.564Z,1923.75
2023-05-04T08:56:45.718Z,2025.00
2023-05-04T08:57:44.691Z,2295.00
2023-05-04T08:58:45.538Z,2300.62
2023-05-04T08:59:44.693Z,2272.50
2023-05-04T09:00:45.632Z,2317.50
2023-05-04T09:01:44.768Z,2216.25
2023-05-04T09:02:45.485Z,2154.38
2023-05-04T09:03:44.833Z,2131.88
2023-05-04T09:04:44.618Z,2233.12
2023-05-04T09:05:44.605Z,2283.75
2023-05-04T09:06:44.602Z,2283.75
2023-05-04T09:07:44.558Z,2368.12
2023-05-04T09:08:44.613Z,2520.00
2023-05-04T09:09:44.523Z,2615.62
2023-05-04T09:10:44.532Z,2458.12
2023-05-04T09:11:44.513Z,2638.12
2023-05-04T09:12:44.535Z,2621.25
2023-05-04T09:13:44.480Z,2188.12
2023-05-04T09:14:44.501Z,2137.50
2023-05-04T09:15:44.466Z,2295.00
2023-05-04T09:16:44.479Z,2441.25
2023-05-04T09:17:57.054Z,2328.75
2023-05-04T09:18:45.401Z,2362.50
2023-05-04T09:19:44.424Z,2390.62
2023-05-04T09:20:44.373Z,2491.88
2023-05-04T09:21:44.984Z,2278.12
2023-05-04T09:22:45.062Z,2323.12
2023-05-04T09:23:44.356Z,2272.50
2023-05-04T09:24:44.337Z,2182.50
2023-05-04T09:25:44.313Z,2193.75
2023-05-04T09:26:44.334Z,2272.50
2023-05-04T09:27:44.278Z,2452.50
2023-05-04T09:28:44.264Z,2683.12
2023-05-04T09:29:44.238Z,2700.00
2023-05-04T09:30:44.367Z,2773.12
2023-05-04T09:31:44.271Z,2655.00
2023-05-04T09:32:44.206Z,2587.50
2023-05-04T09:33:44.202Z,2716.88
2023-05-04T09:34:44.198Z,2739.38
2023-05-04T09:35:44.218Z,2559.38
2023-05-04T09:36:44.979Z,2514.38
2023-05-04T09:37:44.365Z,2542.50
2023-05-04T09:38:44.131Z,2581.88
2023-05-04T09:39:44.112Z,2655.00
2023-05-04T09:40:44.112Z,2570.62
2023-05-04T09:41:44.209Z,2424.38
2023-05-04T09:42:44.112Z,2373.75
2023-05-04T09:43:44.050Z,2435.62
2023-05-04T09:44:44.957Z,2424.38
2023-05-04T09:45:44.166Z,2452.50
2023-05-04T09:46:44.075Z,2497.50
2023-05-04T09:47:44.104Z,2401.88
2023-05-04T09:48:43.996Z,2345.62
2023-05-04T09:49:44.485Z,2306.25
2023-05-04T09:50:45.141Z,2278.12
2023-05-04T09:51:44.791Z,2295.00
2023-05-04T09:52:44.955Z,2283.75
2023-05-04T09:53:43.964Z,2261.25
2023-05-04T09:54:43.915Z,2171.25
2023-05-04T09:55:43.984Z,2193.75
2023-05-04T09:56:43.922Z,2086.88
2023-05-04T09:57:43.875Z,2081.25
2023-05-04T09:58:44.642Z,2143.12
2023-05-04T09:59:43.978Z,2064.38
2023-05-04T10:00:43.908Z,2041.88
2023-05-04T10:01:44.974Z,2064.38
2023-05-04T10:02:44.914Z,2131.88
2023-05-04T10:03:44.677Z,2199.38
2023-05-04T10:04:44.575Z,2266.88
2023-05-04T10:05:44.750Z,2317.50
2023-05-04T10:06:43.749Z,2306.25
2023-05-04T10:07:43.820Z,2210.62
2023-05-04T10:08:43.768Z,2126.25
2023-05-04T10:09:43.713Z,2126.25
2023-05-04T10:10:43.785Z,2137.50
2023-05-04T10:11:43.667Z,2131.88
2023-05-04T10:12:44.656Z,2148.75
2023-05-04T10:13:43.662Z,2165.62
2023-05-04T10:14:44.635Z,2250.00
2023-05-04T10:15:44.586Z,2311.88
2023-05-04T10:16:44.436Z,2379.38
2023-05-04T10:17:44.678Z,2542.50
2023-05-04T10:18:44.553Z,2705.62
2023-05-04T10:19:44.457Z,2947.50
2023-05-04T10:20:44.563Z,3133.12
2023-05-04T10:21:43.589Z,3043.12
2023-05-04T10:22:43.532Z,3015.00
2023-05-04T10:23:43.509Z,2885.62
2023-05-04T10:24:44.535Z,2958.75
2023-05-04T10:25:44.359Z,2936.25
2023-05-04T10:26:43.472Z,2896.88
2023-05-04T10:27:43.476Z,2835.00
2023-05-04T10:28:43.441Z,2913.75
2023-05-04T10:29:44.217Z,2896.88
2023-05-04T10:30:44.381Z,2857.50
2023-05-04T10:31:44.382Z,2885.62
2023-05-04T10:32:43.474Z,2880.00
2023-05-04T10:33:43.399Z,2745.00
2023-05-04T10:34:44.241Z,2694.38
2023-05-04T10:35:44.143Z,2666.25
2023-05-04T10:36:44.302Z,2475.00
2023-05-04T10:37:43.332Z,2272.50
2023-05-04T10:38:43.862Z,2278.12
2023-05-04T10:39:43.342Z,2311.88
2023-05-04T10:40:44.189Z,2345.62
2023-05-04T10:41:44.130Z,2373.75
2023-05-04T10:42:43.267Z,2463.75
2023-05-04T10:43:44.186Z,2520.00
2023-05-04T10:44:44.098Z,2508.75
2023-05-04T10:45:43.299Z,2368.12
2023-05-04T10:46:44.153Z,2525.62
2023-05-04T10:47:44.130Z,2576.25
2023-05-04T10:48:44.276Z,2536.88
2023-05-04T10:49:44.124Z,2469.38
2023-05-04T10:50:44.062Z,2463.75
2023-05-04T10:51:49.347Z,2520.00
2023-05-04T10:52:44.126Z,2475.00
2023-05-04T10:53:43.113Z,2469.38
2023-05-04T10:54:43.251Z,2452.50
2023-05-04T10:55:43.501Z,2413.12
2023-05-04T10:56:43.386Z,2475.00
2023-05-04T10:57:43.994Z,2531.25
2023-05-04T10:58:43.465Z,2638.12
2023-05-04T10:59:43.038Z,2840.62
2023-05-04T11:00:43.084Z,2891.25
2023-05-04T11:01:43.802Z,2970.00
2023-05-04T11:02:43.115Z,2986.88
2023-05-04T11:03:43.083Z,2941.88
2023-05-04T11:04:43.364Z,2767.50
2023-05-04T11:05:42.926Z,2638.12
2023-05-04T11:06:43.200Z,2621.25
2023-05-04T11:07:42.934Z,2604.38
2023-05-04T11:08:42.990Z,2694.38
2023-05-04T11:09:42.903Z,2739.38
2023-05-04T11:10:42.915Z,2700.00
2023-05-04T11:11:42.930Z,2767.50
2023-05-04T11:12:42.921Z,2745.00
2023-05-04T11:13:42.866Z,2728.12
2023-05-04T11:14:43.285Z,2711.25
2023-05-04T11:15:42.840Z,2626.88
2023-05-04T11:16:42.853Z,2655.00
2023-05-04T11:17:42.882Z,2581.88
2023-05-04T11:18:42.829Z,2655.00
2023-05-04T11:19:42.803Z,2857.50
2023-05-04T11:20:42.763Z,2975.62
2023-05-04T11:21:42.876Z,3234.38
2023-05-04T11:22:42.736Z,3346.88
2023-05-04T11:23:42.756Z,3341.25
2023-05-04T11:24:42.692Z,3346.88
2023-05-04T11:25:42.659Z,3436.88
2023-05-04T11:26:42.661Z,3352.50
2023-05-04T11:27:42.642Z,3195.00
2023-05-04T11:28:42.610Z,3155.62
2023-05-04T11:29:42.687Z,3245.62
2023-05-04T11:30:42.607Z,3105.00
2023-05-04T11:31:42.709Z,3037.50
2023-05-04T11:32:42.649Z,2941.88
2023-05-04T11:33:42.555Z,2902.50
2023-05-04T11:34:42.539Z,3031.88
2023-05-04T11:35:42.573Z,3420.00
2023-05-04T11:36:42.532Z,3588.75
2023-05-04T11:37:42.525Z,3510.00
2023-05-04T11:38:42.553Z,3616.88
2023-05-04T11:39:42.468Z,3538.12
2023-05-04T11:40:42.639Z,3600.00
2023-05-04T11:41:42.530Z,3515.62
2023-05-04T11:42:42.450Z,3442.50
2023-05-04T11:43:42.432Z,3285.00
2023-05-04T11:44:42.446Z,3324.38
2023-05-04T11:45:42.642Z,3363.75
2023-05-04T11:46:42.670Z,3414.38
2023-05-04T11:47:42.434Z,3521.25
2023-05-04T11:48:42.816Z,3684.38
2023-05-04T11:49:42.336Z,3611.25
2023-05-04T11:50:42.389Z,3594.38
2023-05-04T11:51:42.671Z,3504.38
2023-05-04T11:52:42.317Z,3481.88
2023-05-04T11:53:42.384Z,3397.50
2023-05-04T11:54:43.225Z,3408.75
2023-05-04T11:55:42.333Z,2874.38
2023-05-04T11:56:42.224Z,2739.38
2023-05-04T11:57:42.218Z,2812.50
2023-05-04T11:58:42.262Z,2733.75
2023-05-04T11:59:42.560Z,3082.50
2023-05-04T12:00:42.243Z,2244.38
2023-05-04T12:01:42.231Z,2840.62
2023-05-04T12:02:42.327Z,2677.50
2023-05-04T12:03:52.292Z,3009.38
2023-05-04T12:04:43.198Z,3358.12
2023-05-04T12:05:42.420Z,2835.00
2023-05-04T12:06:42.103Z,2463.75
2023-05-04T12:07:42.130Z,2643.75
2023-05-04T12:08:42.530Z,2548.12
2023-05-04T12:09:42.082Z,2587.50
2023-05-04T12:10:42.071Z,2835.00
2023-05-04T12:11:42.041Z,2925.00
2023-05-04T12:12:42.072Z,2688.75
2023-05-04T12:13:42.025Z,3296.25
2023-05-04T12:14:42.025Z,2728.12
2023-05-04T12:15:41.986Z,3369.38
2023-05-04T12:16:42.159Z,2998.12
2023-05-04T12:17:42.038Z,4269.38
2023-05-04T12:18:41.947Z,2739.38
2023-05-04T12:19:41.960Z,2463.75
2023-05-04T12:20:42.982Z,3268.12
2023-05-04T12:21:41.969Z,2778.75
2023-05-04T12:22:42.014Z,3155.62
2023-05-04T12:23:41.869Z,3931.88
2023-05-04T12:24:41.910Z,3926.25
2023-05-04T12:25:54.688Z,3391.88
2023-05-04T12:26:42.917Z,2503.12
2023-05-04T12:27:42.585Z,3099.38
2023-05-04T12:28:42.094Z,2536.88
2023-05-04T12:29:41.925Z,2424.38
2023-05-04T12:30:41.809Z,2868.75
2023-05-04T12:31:41.801Z,2925.00
2023-05-04T12:32:42.713Z,2210.62
2023-05-04T12:33:41.809Z,1940.62
2023-05-04T12:34:41.777Z,1890.00
2023-05-04T12:35:41.875Z,2025.00
2023-05-04T12:36:42.191Z,1642.50
2023-05-04T12:37:41.795Z,2148.75
2023-05-04T12:38:41.739Z,3166.88
2023-05-04T12:39:41.734Z,3645.00
2023-05-04T12:40:41.724Z,3318.75
2023-05-04T12:41:42.110Z,2784.38
2023-05-04T12:42:42.309Z,3031.88
2023-05-04T12:43:41.670Z,3611.25
2023-05-04T12:44:41.770Z,3763.12
2023-05-04T12:45:41.689Z,3330.00
2023-05-04T12:46:41.820Z,3712.50
2023-05-04T12:47:41.607Z,3853.12
2023-05-04T12:48:41.605Z,3701.25
2023-05-04T12:49:41.572Z,3577.50
2023-05-04T12:50:41.511Z,3133.12
2023-05-04T12:51:41.553Z,1400.62
2023-05-04T12:52:42.300Z,1558.12
2023-05-04T12:53:41.534Z,3240.00
2023-05-04T12:54:41.451Z,3330.00
2023-05-04T12:55:41.597Z,3442.50
2023-05-04T12:56:41.420Z,2131.88
2023-05-04T12:57:41.450Z,1400.62
2023-05-04T12:58:42.213Z,1316.25
2023-05-04T12:59:41.698Z,1372.50
2023-05-04T13:00:41.435Z,1569.38
2023-05-04T13:01:41.471Z,1676.25
2023-05-04T13:02:41.461Z,1535.62
2023-05-04T13:03:41.625Z,1586.25
2023-05-04T13:04:41.367Z,1704.38
2023-05-04T13:05:41.398Z,1901.25
2023-05-04T13:06:41.468Z,2610.00
2023-05-04T13:07:41.726Z,2278.12
2023-05-04T13:08:41.417Z,2565.00
2023-05-04T13:09:41.234Z,2289.38
2023-05-04T13:10:41.372Z,2255.62
2023-05-04T13:11:41.460Z,2289.38
2023-05-04T13:12:41.350Z,2216.25
2023-05-04T13:13:41.333Z,2103.75
2023-05-04T13:14:41.476Z,1940.62
2023-05-04T13:15:41.301Z,1991.25
2023-05-04T13:16:42.162Z,2053.12
2023-05-04T13:17:42.044Z,1895.62
2023-05-04T13:18:41.224Z,2514.38
2023-05-04T13:19:41.194Z,2986.88
2023-05-04T13:20:41.119Z,2638.12
2023-05-04T13:21:41.187Z,2801.25
2023-05-04T13:22:41.109Z,2874.38
2023-05-04T13:23:41.086Z,2756.25
2023-05-04T13:24:41.092Z,2851.88
2023-05-04T13:25:41.080Z,2643.75
2023-05-04T13:26:41.071Z,2480.62
2023-05-04T13:27:41.123Z,2171.25
2023-05-04T13:28:41.163Z,2272.50
2023-05-04T13:29:41.811Z,2238.75
2023-05-04T13:30:40.960Z,2278.12
2023-05-04T13:31:44.993Z,2323.12
2023-05-04T13:32:40.998Z,2193.75
2023-05-04T13:33:41.918Z,2300.62
2023-05-04T13:34:40.930Z,2131.88
2023-05-04T13:35:43.607Z,2475.00
2023-05-04T13:36:41.899Z,2559.38
2023-05-04T13:37:40.894Z,2407.50
2023-05-04T13:38:41.005Z,2604.38
2023-05-04T13:39:40.848Z,2542.50
2023-05-04T13:40:41.766Z,2998.12
2023-05-04T13:41:41.667Z,2385.00
2023-05-04T13:42:41.570Z,2835.00
2023-05-04T13:43:41.734Z,3605.62
2023-05-04T13:44:40.793Z,1828.12
2023-05-04T13:45:40.756Z,3459.38
2023-05-04T13:46:41.001Z,3391.88
2023-05-04T13:47:41.083Z,3144.38
2023-05-04T13:48:41.568Z,2981.25
2023-05-04T13:49:41.970Z,2801.25
2023-05-04T13:50:41.046Z,2553.75
2023-05-04T13:51:41.078Z,2244.38
2023-05-04T13:52:41.370Z,1614.38
2023-05-04T13:53:40.810Z,1974.38
2023-05-04T13:54:41.095Z,1726.88
2023-05-04T13:55:41.645Z,2058.75
2023-05-04T13:56:40.622Z,2047.50
2023-05-04T13:57:40.712Z,1721.25
2023-05-04T13:58:40.624Z,2041.88
2023-05-04T13:59:44.583Z,2075.62
2023-05-04T14:00:41.654Z,1507.50
2023-05-04T14:01:40.548Z,1417.50
2023-05-04T14:02:41.548Z,1642.50
2023-05-04T14:03:41.342Z,1406.25
2023-05-04T14:04:41.553Z,1411.88
2023-05-04T14:05:41.659Z,1406.25
2023-05-04T14:06:40.551Z,1428.75
2023-05-04T14:07:40.481Z,1428.75
2023-05-04T14:08:41.370Z,1406.25
2023-05-04T14:09:40.553Z,1378.12
2023-05-04T14:10:41.243Z,1378.12
2023-05-04T14:11:41.340Z,1451.25
2023-05-04T14:12:40.414Z,1586.25
2023-05-04T14:13:40.369Z,1428.75
2023-05-04T14:14:41.309Z,1428.75
2023-05-04T14:15:40.336Z,1530.00
2023-05-04T14:16:41.201Z,1648.12
2023-05-04T14:17:40.456Z,1884.38
2023-05-04T14:18:41.029Z,1878.75
2023-05-04T14:19:41.120Z,2975.62
2023-05-04T14:20:41.283Z,3684.38
2023-05-04T14:21:41.208Z,3830.62
2023-05-04T14:22:41.199Z,3819.38
2023-05-04T14:23:40.260Z,3667.50
2023-05-04T14:24:40.333Z,3408.75
2023-05-04T14:25:40.203Z,3375.00
2023-05-04T14:26:40.303Z,3425.62
2023-05-04T14:27:40.446Z,2953.12
2023-05-04T14:28:40.333Z,2671.88
2023-05-04T14:29:40.287Z,2475.00
2023-05-04T14:30:40.921Z,2390.62
2023-05-04T14:31:40.373Z,2188.12
2023-05-04T14:32:40.407Z,1957.50
2023-05-04T14:33:40.189Z,1800.00
2023-05-04T14:34:40.087Z,1563.75
2023-05-04T14:35:40.078Z,1513.12
2023-05-04T14:36:40.145Z,1423.12
2023-05-04T14:37:40.248Z,1338.75
2023-05-04T14:38:40.446Z,1260.00
2023-05-04T14:39:40.127Z,1192.50
2023-05-04T14:40:40.034Z,1203.75
2023-05-04T14:41:40.161Z,1192.50
2023-05-04T14:42:40.018Z,1220.62
2023-05-04T14:43:40.118Z,1293.75
2023-05-04T14:44:40.149Z,1366.88
2023-05-04T14:45:40.024Z,1265.62
2023-05-04T14:46:40.294Z,1305.00
2023-05-04T14:47:40.001Z,1395.00
2023-05-04T14:48:39.947Z,1541.25
2023-05-04T14:49:39.917Z,1676.25
2023-05-04T14:50:40.341Z,1771.88
2023-05-04T14:51:39.967Z,1850.62
2023-05-04T14:52:42.299Z,1912.50
2023-05-04T14:53:40.627Z,1400.62
2023-05-04T14:54:39.979Z,1816.88
2023-05-04T14:55:39.972Z,1906.88
2023-05-04T14:56:40.179Z,1901.25
2023-05-04T14:57:39.779Z,1777.50
2023-05-04T14:58:40.826Z,1575.00
2023-05-04T14:59:39.795Z,1406.25
2023-05-04T15:00:39.994Z,1282.50
2023-05-04T15:01:40.163Z,1231.88
2023-05-04T15:02:39.854Z,1175.62
2023-05-04T15:03:40.012Z,1130.62
2023-05-04T15:04:39.750Z,1091.25
2023-05-04T15:05:39.698Z,1051.88
2023-05-04T15:06:39.757Z,1023.75
2023-05-04T15:07:39.977Z,990.00
2023-05-04T15:08:40.098Z,956.25
2023-05-04T15:09:40.822Z,911.25
2023-05-04T15:10:39.782Z,860.62
2023-05-04T15:11:39.576Z,832.50
2023-05-04T15:12:39.812Z,787.50
2023-05-04T15:13:39.691Z,753.75
2023-05-04T15:14:39.851Z,725.62
2023-05-04T15:15:40.164Z,708.75
2023-05-04T15:16:40.458Z,703.12
2023-05-04T15:17:39.492Z,697.50
2023-05-04T15:18:40.214Z,686.25
2023-05-04T15:19:40.572Z,680.62
2023-05-04T15:20:39.663Z,675.00
2023-05-04T15:21:39.741Z,669.38
2023-05-04T15:22:39.739Z,675.00
2023-05-04T15:23:40.082Z,669.38
2023-05-04T15:24:40.175Z,680.62
2023-05-04T15:25:39.413Z,686.25
2023-05-04T15:26:39.845Z,708.75
2023-05-04T15:27:39.455Z,736.88
2023-05-04T15:28:40.147Z,759.38
2023-05-04T15:29:39.333Z,804.38
2023-05-04T15:30:39.617Z,855.00
2023-05-04T15:31:39.855Z,911.25
2023-05-04T15:32:39.312Z,939.38
2023-05-04T15:33:39.371Z,967.50
2023-05-04T15:34:39.862Z,990.00
2023-05-04T15:35:39.340Z,978.75
2023-05-04T15:36:39.239Z,950.62
2023-05-04T15:37:39.536Z,922.50
2023-05-04T15:38:39.608Z,883.12
2023-05-04T15:39:39.579Z,838.12
2023-05-04T15:40:39.548Z,815.62
2023-05-04T15:41:39.308Z,798.75
2023-05-04T15:42:39.369Z,787.50
2023-05-04T15:43:39.162Z,787.50
2023-05-04T15:44:39.193Z,787.50
2023-05-04T15:45:39.231Z,798.75
2023-05-04T15:46:39.390Z,815.62
2023-05-04T15:47:39.159Z,832.50
2023-05-04T15:48:39.041Z,855.00
2023-05-04T15:49:39.093Z,883.12
2023-05-04T15:50:39.170Z,900.00
2023-05-04T15:51:39.051Z,922.50
2023-05-04T15:52:39.799Z,1006.88
2023-05-04T15:53:38.992Z,1181.25
2023-05-04T15:54:39.048Z,1181.25
2023-05-04T15:55:39.238Z,973.12
2023-05-04T15:56:38.948Z,1333.12
2023-05-04T15:57:38.922Z,1288.12
2023-05-04T15:58:38.967Z,1355.62
2023-05-04T15:59:39.151Z,1501.88
2023-05-04T16:00:38.906Z,1434.38
2023-05-04T16:01:38.901Z,1231.88
2023-05-04T16:02:39.220Z,1057.50
2023-05-04T16:03:39.069Z,1023.75
2023-05-04T16:04:38.902Z,1012.50
2023-05-04T16:05:38.838Z,961.88
2023-05-04T16:06:39.108Z,1046.25
2023-05-04T16:07:38.767Z,1063.12
2023-05-04T16:08:38.897Z,1203.75
2023-05-04T16:09:38.795Z,1226.25
2023-05-04T16:10:38.755Z,973.12
2023-05-04T16:11:38.745Z,995.62
2023-05-04T16:12:39.010Z,849.38
2023-05-04T16:13:38.705Z,781.88
2023-05-04T16:14:38.773Z,770.62
2023-05-04T16:15:39.050Z,793.12
2023-05-04T16:16:38.800Z,731.25
2023-05-04T16:17:38.706Z,697.50
2023-05-04T16:18:38.899Z,675.00
2023-05-04T16:19:38.663Z,658.12
2023-05-04T16:20:38.579Z,635.62
2023-05-04T16:21:39.330Z,613.12
2023-05-04T16:22:38.905Z,613.12
2023-05-04T16:23:38.626Z,590.62
2023-05-04T16:24:38.994Z,585.00
2023-05-04T16:25:38.601Z,573.75
2023-05-04T16:26:38.745Z,568.12
2023-05-04T16:27:38.607Z,573.75
2023-05-04T16:28:38.494Z,579.38
2023-05-04T16:29:39.109Z,556.88
2023-05-04T16:30:38.548Z,562.50
2023-05-04T16:31:38.794Z,579.38
2023-05-04T16:32:38.498Z,573.75
2023-05-04T16:33:39.219Z,540.00
2023-05-04T16:34:38.519Z,528.75
2023-05-04T16:35:38.671Z,528.75
2023-05-04T16:36:38.372Z,534.38
2023-05-04T16:37:38.462Z,545.62
2023-05-04T16:38:38.731Z,534.38
2023-05-04T16:39:38.336Z,562.50
2023-05-04T16:40:38.353Z,500.62
2023-05-04T16:41:38.306Z,489.38
2023-05-04T16:42:38.349Z,472.50
2023-05-04T16:43:38.580Z,461.25